createdAt,value
2022-08-17T00:00:42.699Z,7.50
2022-08-17T00:01:51.754Z,7.40
2022-08-17T00:02:35.993Z,8.50
2022-08-17T00:03:33.885Z,8.30
2022-08-17T00:04:33.761Z,8.40
2022-08-17T00:05:33.696Z,7.80
2022-08-17T00:06:33.692Z,7.60
2022-08-17T00:07:33.642Z,7.60
2022-08-17T00:08:33.638Z,8.50
2022-08-17T00:09:33.666Z,8.40
2022-08-17T00:10:33.718Z,9.20
2022-08-17T00:11:33.633Z,8.50
2022-08-17T00:12:42.111Z,9.70
2022-08-17T00:13:33.665Z,10.40
2022-08-17T00:14:33.617Z,10.30
2022-08-17T00:15:33.580Z,9.40
2022-08-17T00:16:56.208Z,9.80
2022-08-17T00:17:33.606Z,10.60
2022-08-17T00:19:01.269Z,9.40
2022-08-17T00:19:33.493Z,10.60
2022-08-17T00:20:35.005Z,9.10
2022-08-17T00:21:57.933Z,10.00
2022-08-17T00:22:36.690Z,8.90
2022-08-17T00:23:33.513Z,8.30
2022-08-17T00:24:33.489Z,8.10
2022-08-17T00:25:33.438Z,8.30
2022-08-17T00:26:34.569Z,7.90
2022-08-17T00:27:33.497Z,7.30
2022-08-17T00:28:33.467Z,8.60
2022-08-17T00:29:33.455Z,8.00
2022-08-17T00:30:50.940Z,7.80
2022-08-17T00:31:33.421Z,7.80
2022-08-17T00:33:22.893Z,8.60
2022-08-17T00:33:33.433Z,9.30
2022-08-17T00:34:33.371Z,7.80
2022-08-17T00:35:33.417Z,8.00
2022-08-17T00:36:33.346Z,8.90
2022-08-17T00:37:33.360Z,7.90
2022-08-17T00:38:33.383Z,9.30
2022-08-17T00:39:33.463Z,8.90
2022-08-17T00:40:39.829Z,8.70
2022-08-17T00:41:33.288Z,9.00
2022-08-17T00:42:33.271Z,9.70
2022-08-17T00:43:33.317Z,9.30
2022-08-17T00:44:33.255Z,10.10
2022-08-17T00:45:33.263Z,11.20
2022-08-17T00:46:33.289Z,10.60
2022-08-17T00:47:33.266Z,10.50
2022-08-17T00:48:33.339Z,9.30
2022-08-17T00:49:33.231Z,9.80
2022-08-17T00:50:33.235Z,10.00
2022-08-17T00:51:33.234Z,11.90
2022-08-17T00:52:33.185Z,12.60
2022-08-17T00:53:33.211Z,11.30
2022-08-17T00:54:33.224Z,12.10
2022-08-17T00:55:33.274Z,12.40
2022-08-17T00:56:33.186Z,11.20
2022-08-17T00:57:33.144Z,13.20
2022-08-17T00:58:36.360Z,12.00
2022-08-17T00:59:33.127Z,11.20
2022-08-17T01:00:33.159Z,11.70
2022-08-17T01:01:33.160Z,11.40
2022-08-17T01:02:34.248Z,10.30
2022-08-17T01:03:33.115Z,11.90
2022-08-17T01:04:33.175Z,10.40
2022-08-17T01:05:33.092Z,11.90
2022-08-17T01:06:33.033Z,10.00
2022-08-17T01:07:33.027Z,9.80
2022-08-17T01:08:33.086Z,10.30
2022-08-17T01:09:33.134Z,10.00
2022-08-17T01:10:58.299Z,10.10
2022-08-17T01:11:33.063Z,10.30
2022-08-17T01:12:33.111Z,10.10
2022-08-17T01:13:39.615Z,10.10
2022-08-17T01:14:33.090Z,9.80
2022-08-17T01:15:32.988Z,10.80
2022-08-17T01:16:32.995Z,10.10
2022-08-17T01:17:32.957Z,10.50
2022-08-17T01:18:32.940Z,10.70
2022-08-17T01:19:32.914Z,9.80
2022-08-17T01:20:43.114Z,10.10
2022-08-17T01:21:32.922Z,9.90
2022-08-17T01:22:32.928Z,10.00
2022-08-17T01:23:32.878Z,11.70
2022-08-17T01:24:33.857Z,10.10
2022-08-17T01:25:32.872Z,11.70
2022-08-17T01:26:32.940Z,9.80
2022-08-17T01:27:32.798Z,10.40
2022-08-17T01:28:53.052Z,11.20
2022-08-17T01:29:32.806Z,11.70
2022-08-17T01:30:58.420Z,9.90
2022-08-17T01:31:32.820Z,12.70
2022-08-17T01:32:32.785Z,13.00
2022-08-17T01:33:32.765Z,11.30
2022-08-17T01:34:42.089Z,11.40
2022-08-17T01:35:32.774Z,11.40
2022-08-17T01:36:32.767Z,9.90
2022-08-17T01:37:32.740Z,11.80
2022-08-17T01:38:32.705Z,12.80
2022-08-17T01:39:32.712Z,13.70
2022-08-17T01:40:32.671Z,12.70
2022-08-17T01:41:32.733Z,11.60
2022-08-17T01:42:32.638Z,12.20
2022-08-17T01:43:32.678Z,12.80
2022-08-17T01:44:32.699Z,11.00
2022-08-17T01:45:32.677Z,10.90
2022-08-17T01:46:32.583Z,10.40
2022-08-17T01:47:32.612Z,10.70
2022-08-17T01:48:32.583Z,10.20
2022-08-17T01:49:32.631Z,10.70
2022-08-17T01:50:32.570Z,10.20
2022-08-17T01:51:32.707Z,11.60
2022-08-17T01:52:32.587Z,12.50
2022-08-17T01:53:32.522Z,12.50
2022-08-17T01:54:32.534Z,12.90
2022-08-17T01:55:32.519Z,12.70
2022-08-17T01:56:32.508Z,13.50
2022-08-17T01:57:32.511Z,14.00
2022-08-17T01:58:32.474Z,13.30
2022-08-17T01:59:32.468Z,13.60
2022-08-17T02:00:59.665Z,12.10
2022-08-17T02:01:32.527Z,13.30
2022-08-17T02:02:32.458Z,11.40
2022-08-17T02:03:32.467Z,10.90
2022-08-17T02:04:32.461Z,11.10
2022-08-17T02:05:32.422Z,10.40
2022-08-17T02:06:52.894Z,11.10
2022-08-17T02:07:32.394Z,10.80
2022-08-17T02:08:36.875Z,10.90
2022-08-17T02:09:32.398Z,10.80
2022-08-17T02:10:33.847Z,12.90
2022-08-17T02:11:32.441Z,13.50
2022-08-17T02:12:47.940Z,12.10
2022-08-17T02:13:32.363Z,11.00
2022-08-17T02:14:32.339Z,12.00
2022-08-17T02:15:32.323Z,12.40
2022-08-17T02:16:36.838Z,12.10
2022-08-17T02:17:32.363Z,13.20
2022-08-17T02:18:32.299Z,13.10
2022-08-17T02:19:32.316Z,13.00
2022-08-17T02:20:42.244Z,12.90
2022-08-17T02:21:32.340Z,11.80
2022-08-17T02:22:32.280Z,11.50
2022-08-17T02:23:32.199Z,13.80
2022-08-17T02:24:59.900Z,13.90
2022-08-17T02:25:32.214Z,15.40
2022-08-17T02:26:32.202Z,12.20
2022-08-17T02:27:32.251Z,14.50
2022-08-17T02:28:32.209Z,13.40
2022-08-17T02:29:32.397Z,12.50
2022-08-17T02:31:00.719Z,14.00
2022-08-17T02:31:32.243Z,16.00
2022-08-17T02:32:32.124Z,14.70
2022-08-17T02:33:41.537Z,15.40
2022-08-17T02:34:32.173Z,12.90
2022-08-17T02:35:32.100Z,14.80
2022-08-17T02:36:32.072Z,16.00
2022-08-17T02:37:32.130Z,15.20
2022-08-17T02:38:32.106Z,14.70
2022-08-17T02:39:32.241Z,15.10
2022-08-17T02:40:36.232Z,19.30
2022-08-17T02:41:32.068Z,22.00
2022-08-17T02:42:32.066Z,17.70
2022-08-17T02:43:32.067Z,15.80
2022-08-17T02:44:39.737Z,17.70
2022-08-17T02:45:32.055Z,16.20
2022-08-17T02:46:32.038Z,15.40
2022-08-17T02:47:32.046Z,15.70
2022-08-17T02:48:32.140Z,19.90
2022-08-17T02:49:31.994Z,14.50
2022-08-17T02:50:31.914Z,14.50
2022-08-17T02:51:31.993Z,13.30
2022-08-17T02:52:40.525Z,13.60
2022-08-17T02:53:35.618Z,14.30
2022-08-17T02:54:39.764Z,14.50
2022-08-17T02:55:31.877Z,16.10
2022-08-17T02:56:31.857Z,13.70
2022-08-17T02:57:31.844Z,18.30
2022-08-17T02:58:35.341Z,15.50
2022-08-17T02:59:31.870Z,16.20
2022-08-17T03:00:31.838Z,15.00
2022-08-17T03:01:31.839Z,19.90
2022-08-17T03:02:31.896Z,18.00
2022-08-17T03:03:31.861Z,18.60
2022-08-17T03:04:33.780Z,20.70
2022-08-17T03:05:31.839Z,18.50
2022-08-17T03:06:31.778Z,22.40
2022-08-17T03:07:31.759Z,18.10
2022-08-17T03:08:31.823Z,18.00
2022-08-17T03:09:31.803Z,21.20
2022-08-17T03:10:31.788Z,20.10
2022-08-17T03:11:31.734Z,20.40
2022-08-17T03:12:31.720Z,18.60
2022-08-17T03:13:31.728Z,25.10
2022-08-17T03:14:31.740Z,21.20
2022-08-17T03:15:31.669Z,21.60
2022-08-17T03:16:31.713Z,24.00
2022-08-17T03:17:31.682Z,19.80
2022-08-17T03:18:31.676Z,22.90
2022-08-17T03:19:31.635Z,20.60
2022-08-17T03:20:31.640Z,25.80
2022-08-17T03:21:31.624Z,23.80
2022-08-17T03:22:36.694Z,26.10
2022-08-17T03:23:31.633Z,23.60
2022-08-17T03:24:31.651Z,25.00
2022-08-17T03:25:31.607Z,24.30
2022-08-17T03:26:31.557Z,22.40
2022-08-17T03:27:31.546Z,18.60
2022-08-17T03:28:31.609Z,19.00
2022-08-17T03:29:31.588Z,19.90
2022-08-17T03:30:31.728Z,20.00
2022-08-17T03:31:31.597Z,21.10
2022-08-17T03:32:31.566Z,23.20
2022-08-17T03:33:31.508Z,20.80
2022-08-17T03:34:31.545Z,19.60
2022-08-17T03:35:31.494Z,18.80
2022-08-17T03:36:31.512Z,17.60
2022-08-17T03:37:31.421Z,17.90
2022-08-17T03:38:39.198Z,17.40
2022-08-17T03:39:31.507Z,18.80
2022-08-17T03:40:55.579Z,23.00
2022-08-17T03:41:31.400Z,25.30
2022-08-17T03:42:32.981Z,27.30
2022-08-17T03:43:31.563Z,20.20
2022-08-17T03:44:31.467Z,21.40
2022-08-17T03:45:31.362Z,22.30
2022-08-17T03:46:34.997Z,21.60
2022-08-17T03:47:31.298Z,23.20
2022-08-17T03:48:31.331Z,27.70
2022-08-17T03:49:31.325Z,22.20
2022-08-17T03:50:31.314Z,24.30
2022-08-17T03:51:33.479Z,21.70
2022-08-17T03:52:31.327Z,20.60
2022-08-17T03:53:31.229Z,23.70
2022-08-17T03:54:31.234Z,31.90
2022-08-17T03:55:36.053Z,27.90
2022-08-17T03:56:31.247Z,29.60
2022-08-17T03:57:31.208Z,25.30
2022-08-17T03:58:31.227Z,31.80
2022-08-17T03:59:31.153Z,25.30
2022-08-17T04:00:31.166Z,23.50
2022-08-17T04:01:31.203Z,26.40
2022-08-17T04:02:31.131Z,25.20
2022-08-17T04:03:31.081Z,21.20
2022-08-17T04:04:31.148Z,21.20
2022-08-17T04:05:31.127Z,20.20
2022-08-17T04:06:31.138Z,21.20
2022-08-17T04:07:31.094Z,24.80
2022-08-17T04:08:31.033Z,23.90
2022-08-17T04:09:31.048Z,20.90
2022-08-17T04:10:31.050Z,24.10
2022-08-17T04:11:31.126Z,22.60
2022-08-17T04:12:31.385Z,24.70
2022-08-17T04:13:31.003Z,23.60
2022-08-17T04:14:31.081Z,21.40
2022-08-17T04:15:31.025Z,27.60
2022-08-17T04:16:30.989Z,23.30
2022-08-17T04:17:31.001Z,25.70
2022-08-17T04:18:30.992Z,28.30
2022-08-17T04:19:30.950Z,24.70
2022-08-17T04:20:31.058Z,26.00
2022-08-17T04:21:31.060Z,24.50
2022-08-17T04:22:34.255Z,22.60
2022-08-17T04:23:30.952Z,25.40
2022-08-17T04:24:30.950Z,24.90
2022-08-17T04:25:30.907Z,24.80
2022-08-17T04:26:50.587Z,24.30
2022-08-17T04:27:31.009Z,24.60
2022-08-17T04:28:31.047Z,24.50
2022-08-17T04:29:54.238Z,25.50
2022-08-17T04:30:31.083Z,26.40
2022-08-17T04:31:30.984Z,23.70
2022-08-17T04:33:04.351Z,27.90
2022-08-17T04:33:30.840Z,28.90
2022-08-17T04:34:30.926Z,25.30
2022-08-17T04:35:30.957Z,33.30
2022-08-17T04:36:30.804Z,29.10
2022-08-17T04:37:30.808Z,31.70
2022-08-17T04:38:30.866Z,26.00
2022-08-17T04:39:32.872Z,25.80
2022-08-17T04:40:30.811Z,35.10
2022-08-17T04:41:30.743Z,27.90
2022-08-17T04:42:30.755Z,27.00
2022-08-17T04:43:30.736Z,30.00
2022-08-17T04:44:37.785Z,25.80
2022-08-17T04:45:32.118Z,24.90
2022-08-17T04:46:30.679Z,24.70
2022-08-17T04:47:30.763Z,26.00
2022-08-17T04:48:36.138Z,24.30
2022-08-17T04:49:30.701Z,25.10
2022-08-17T04:50:30.669Z,25.70
2022-08-17T04:51:30.654Z,30.50
2022-08-17T04:52:43.189Z,26.10
2022-08-17T04:53:30.657Z,29.70
2022-08-17T04:54:30.584Z,27.70
2022-08-17T04:55:30.595Z,26.10
2022-08-17T04:56:30.623Z,25.00
2022-08-17T04:57:30.556Z,32.30
2022-08-17T04:58:30.546Z,25.20
2022-08-17T04:59:30.576Z,28.20
2022-08-17T05:00:30.540Z,28.80
2022-08-17T05:01:30.628Z,26.00
2022-08-17T05:02:30.563Z,27.80
2022-08-17T05:03:30.710Z,25.80
2022-08-17T05:04:34.853Z,28.30
2022-08-17T05:05:30.547Z,24.30
2022-08-17T05:06:30.545Z,31.30
2022-08-17T05:07:31.728Z,27.90
2022-08-17T05:08:30.496Z,30.60
2022-08-17T05:09:30.482Z,28.40
2022-08-17T05:10:30.416Z,27.20
2022-08-17T05:11:30.489Z,29.70
2022-08-17T05:12:30.445Z,26.10
2022-08-17T05:13:30.560Z,23.10
2022-08-17T05:14:32.880Z,25.40
2022-08-17T05:15:33.194Z,27.40
2022-08-17T05:16:30.429Z,26.70
2022-08-17T05:17:30.415Z,24.90
2022-08-17T05:18:30.367Z,29.70
2022-08-17T05:19:30.440Z,26.20
2022-08-17T05:20:30.454Z,24.20
2022-08-17T05:21:30.381Z,28.40
2022-08-17T05:22:30.403Z,29.80
2022-08-17T05:23:39.115Z,24.00
2022-08-17T05:24:40.732Z,27.00
2022-08-17T05:25:30.521Z,30.10
2022-08-17T05:26:30.352Z,29.70
2022-08-17T05:27:35.322Z,29.50
2022-08-17T05:28:30.309Z,29.70
2022-08-17T05:29:34.298Z,30.10
2022-08-17T05:30:30.240Z,29.60
2022-08-17T05:31:30.233Z,30.00
2022-08-17T05:32:37.281Z,29.20
2022-08-17T05:33:30.297Z,29.00
2022-08-17T05:34:30.254Z,27.30
2022-08-17T05:35:30.432Z,28.60
2022-08-17T05:36:41.985Z,28.20
2022-08-17T05:37:30.275Z,28.50
2022-08-17T05:38:30.221Z,27.70
2022-08-17T05:39:30.277Z,26.60
2022-08-17T05:40:32.944Z,26.70
2022-08-17T05:41:30.174Z,28.70
2022-08-17T05:42:30.178Z,25.60
2022-08-17T05:43:30.202Z,27.30
2022-08-17T05:44:30.122Z,26.50
2022-08-17T05:45:54.438Z,26.60
2022-08-17T05:46:30.196Z,26.50
2022-08-17T05:47:30.063Z,25.80
2022-08-17T05:48:39.745Z,24.40
2022-08-17T05:49:30.079Z,26.20
2022-08-17T05:50:30.298Z,25.40
2022-08-17T05:51:30.190Z,25.80
2022-08-17T05:52:30.093Z,25.40
2022-08-17T05:53:30.357Z,24.60
2022-08-17T05:54:30.023Z,24.80
2022-08-17T05:55:30.005Z,25.50
2022-08-17T05:56:30.642Z,24.00
2022-08-17T05:57:29.964Z,26.10
2022-08-17T05:58:30.026Z,25.10
2022-08-17T05:59:29.918Z,25.10
2022-08-17T06:00:31.022Z,24.00
2022-08-17T06:01:30.001Z,23.10
2022-08-17T06:02:29.973Z,25.00
2022-08-17T06:03:29.964Z,24.90
2022-08-17T06:04:29.901Z,24.30
2022-08-17T06:05:29.850Z,24.30
2022-08-17T06:06:31.224Z,24.10
2022-08-17T06:07:29.921Z,23.20
2022-08-17T06:08:29.901Z,24.40
2022-08-17T06:09:33.677Z,23.70
2022-08-17T06:10:29.826Z,24.10
2022-08-17T06:11:29.882Z,22.50
2022-08-17T06:12:29.983Z,22.40
2022-08-17T06:13:29.884Z,22.50
2022-08-17T06:14:29.900Z,22.30
2022-08-17T06:15:29.780Z,22.50
2022-08-17T06:16:34.412Z,22.40
2022-08-17T06:17:29.828Z,22.30
2022-08-17T06:18:29.810Z,22.30
2022-08-17T06:19:29.815Z,21.00
2022-08-17T06:20:29.716Z,22.40
2022-08-17T06:21:32.154Z,21.70
2022-08-17T06:22:29.698Z,21.50
2022-08-17T06:23:29.712Z,21.20
2022-08-17T06:24:29.777Z,19.40
2022-08-17T06:25:29.729Z,20.80
2022-08-17T06:26:34.517Z,20.30
2022-08-17T06:27:29.683Z,20.10
2022-08-17T06:28:29.671Z,20.70
2022-08-17T06:29:29.624Z,20.10
2022-08-17T06:30:29.597Z,19.40
2022-08-17T06:31:29.655Z,19.40
2022-08-17T06:32:29.679Z,19.60
2022-08-17T06:33:29.596Z,18.80
2022-08-17T06:34:29.584Z,18.80
2022-08-17T06:35:32.098Z,19.10
2022-08-17T06:36:29.644Z,17.80
2022-08-17T06:37:29.603Z,18.00
2022-08-17T06:38:38.284Z,16.80
2022-08-17T06:39:29.627Z,16.40
2022-08-17T06:40:29.511Z,15.70
2022-08-17T06:41:29.607Z,14.90
2022-08-17T06:42:54.789Z,13.80
2022-08-17T06:43:29.653Z,14.50
2022-08-17T06:44:43.682Z,14.10
2022-08-17T06:45:29.507Z,14.00
2022-08-17T06:46:29.451Z,13.30
2022-08-17T06:47:29.602Z,12.90
2022-08-17T06:48:29.553Z,12.70
2022-08-17T06:49:30.479Z,12.50
2022-08-17T06:50:29.503Z,12.20
2022-08-17T06:51:29.603Z,11.60
2022-08-17T06:52:45.738Z,11.50
2022-08-17T06:53:29.399Z,11.20
2022-08-17T06:54:29.367Z,10.80
2022-08-17T06:55:32.126Z,10.50
2022-08-17T06:56:53.851Z,11.20
2022-08-17T06:57:29.331Z,10.70
2022-08-17T06:58:29.768Z,9.40
2022-08-17T06:59:36.293Z,9.70
2022-08-17T07:00:30.387Z,9.30
2022-08-17T07:01:29.622Z,9.30
2022-08-17T07:02:51.586Z,8.30
2022-08-17T07:03:30.205Z,8.40
2022-08-17T07:04:29.298Z,8.30
2022-08-17T07:05:29.364Z,8.50
2022-08-17T07:06:29.468Z,8.10
2022-08-17T07:07:29.490Z,8.30
2022-08-17T07:08:32.066Z,8.30
2022-08-17T07:09:29.285Z,8.20
2022-08-17T07:10:29.219Z,8.00
2022-08-17T07:11:29.257Z,7.70
2022-08-17T07:12:29.279Z,7.80
2022-08-17T07:13:29.290Z,7.40
2022-08-17T07:14:29.186Z,7.60
2022-08-17T07:15:29.277Z,7.10
2022-08-17T07:16:29.580Z,7.50
2022-08-17T07:17:47.194Z,7.60
2022-08-17T07:18:29.496Z,7.10
2022-08-17T07:19:29.727Z,7.30
2022-08-17T07:20:30.909Z,7.20
2022-08-17T07:21:29.671Z,6.70
2022-08-17T07:22:30.793Z,6.70
2022-08-17T07:23:29.983Z,6.70
2022-08-17T07:24:29.995Z,6.40
2022-08-17T07:25:29.425Z,6.90
2022-08-17T07:26:29.205Z,6.70
2022-08-17T07:27:30.127Z,6.90
2022-08-17T07:28:29.435Z,6.90
2022-08-17T07:29:29.481Z,6.80
2022-08-17T07:30:29.758Z,6.20
2022-08-17T07:31:30.318Z,6.80
2022-08-17T07:32:29.811Z,6.10
2022-08-17T07:33:29.849Z,6.70
2022-08-17T07:34:29.575Z,6.50
2022-08-17T07:35:40.965Z,5.90
2022-08-17T07:36:30.184Z,6.20
2022-08-17T07:37:29.378Z,6.10
2022-08-17T07:38:30.215Z,6.20
2022-08-17T07:39:30.325Z,5.90
2022-08-17T07:40:28.995Z,6.10
2022-08-17T07:41:57.722Z,5.50
2022-08-17T07:42:30.321Z,5.90
2022-08-17T07:43:29.571Z,5.80
2022-08-17T07:44:28.841Z,5.20
2022-08-17T07:45:28.879Z,4.90
2022-08-17T07:46:28.970Z,5.40
2022-08-17T07:47:28.801Z,5.80
2022-08-17T07:48:28.823Z,5.50
2022-08-17T07:49:28.789Z,5.10
2022-08-17T07:50:29.054Z,5.50
2022-08-17T07:51:29.010Z,5.50
2022-08-17T07:52:48.409Z,5.40
2022-08-17T07:53:28.769Z,5.30
2022-08-17T07:54:28.738Z,5.50
2022-08-17T07:55:28.691Z,5.40
2022-08-17T07:56:28.915Z,5.50
2022-08-17T07:57:30.074Z,5.80
2022-08-17T07:58:28.741Z,5.70
2022-08-17T07:59:33.752Z,5.60
2022-08-17T08:00:32.073Z,5.70
2022-08-17T08:01:39.358Z,5.80
2022-08-17T08:02:32.896Z,6.00
2022-08-17T08:03:28.731Z,5.60
2022-08-17T08:04:58.853Z,5.60
2022-08-17T08:05:49.140Z,5.80
2022-08-17T08:06:28.821Z,5.80
2022-08-17T08:07:29.472Z,5.40
2022-08-17T08:08:28.649Z,5.70
2022-08-17T08:09:28.655Z,6.20
2022-08-17T08:10:28.565Z,5.70
2022-08-17T08:11:28.574Z,6.10
2022-08-17T08:12:30.561Z,5.90
2022-08-17T08:13:28.623Z,6.00
2022-08-17T08:14:28.912Z,5.80
2022-08-17T08:15:28.631Z,5.50
2022-08-17T08:16:28.506Z,5.70
2022-08-17T08:17:28.592Z,5.90
2022-08-17T08:18:54.818Z,5.80
2022-08-17T08:19:28.867Z,6.00
2022-08-17T08:20:53.207Z,5.80
2022-08-17T08:21:28.608Z,6.00
2022-08-17T08:22:28.532Z,5.50
2022-08-17T08:23:28.495Z,6.00
2022-08-17T08:24:31.093Z,5.80
2022-08-17T08:25:28.695Z,5.80
2022-08-17T08:26:28.568Z,5.80
2022-08-17T08:27:28.443Z,5.70
2022-08-17T08:28:28.420Z,5.10
2022-08-17T08:29:28.422Z,5.40
2022-08-17T08:30:28.334Z,5.00
2022-08-17T08:31:28.360Z,5.00
2022-08-17T08:32:28.315Z,5.50
2022-08-17T08:33:28.328Z,5.00
2022-08-17T08:35:00.688Z,5.50
2022-08-17T08:35:28.311Z,5.10
2022-08-17T08:37:02.142Z,5.10
2022-08-17T08:37:35.557Z,5.20
2022-08-17T08:38:28.329Z,4.90
2022-08-17T08:39:28.327Z,5.20
2022-08-17T08:40:28.286Z,4.70
2022-08-17T08:41:28.245Z,4.60
2022-08-17T08:42:28.265Z,5.10
2022-08-17T08:43:28.234Z,5.10
2022-08-17T08:45:00.998Z,5.00
2022-08-17T08:45:28.251Z,5.00
2022-08-17T08:46:28.233Z,4.80
2022-08-17T08:47:28.635Z,4.80
2022-08-17T08:48:53.692Z,4.90
2022-08-17T08:49:59.189Z,4.50
2022-08-17T08:50:37.599Z,4.70
2022-08-17T08:51:28.512Z,5.00
2022-08-17T08:52:28.233Z,4.50
2022-08-17T08:53:28.284Z,4.40
2022-08-17T08:54:28.188Z,4.80
2022-08-17T08:55:28.290Z,4.50
2022-08-17T08:56:28.145Z,4.10
2022-08-17T08:57:33.658Z,4.20
2022-08-17T08:58:31.943Z,4.30
2022-08-17T08:59:28.128Z,4.30
2022-08-17T09:00:28.127Z,4.50
2022-08-17T09:01:28.102Z,4.40
2022-08-17T09:02:28.029Z,4.60
2022-08-17T09:03:42.749Z,4.60
2022-08-17T09:04:28.016Z,4.70
2022-08-17T09:05:28.001Z,5.30
2022-08-17T09:06:35.621Z,4.50
2022-08-17T09:07:28.022Z,4.60
2022-08-17T09:08:27.979Z,5.00
2022-08-17T09:09:28.043Z,4.60
2022-08-17T09:10:28.062Z,4.60
2022-08-17T09:11:28.041Z,4.90
2022-08-17T09:12:28.039Z,4.60
2022-08-17T09:13:28.025Z,4.30
2022-08-17T09:14:28.486Z,4.60
2022-08-17T09:15:27.968Z,4.70
2022-08-17T09:16:27.875Z,4.70
2022-08-17T09:17:27.902Z,4.50
2022-08-17T09:19:03.191Z,4.60
2022-08-17T09:19:27.843Z,4.80
2022-08-17T09:20:28.769Z,4.80
2022-08-17T09:21:27.831Z,4.60
2022-08-17T09:22:27.822Z,4.60
2022-08-17T09:23:27.832Z,4.80
2022-08-17T09:24:27.783Z,5.00
2022-08-17T09:25:27.778Z,4.50
2022-08-17T09:26:27.797Z,4.70
2022-08-17T09:27:27.759Z,4.60
2022-08-17T09:28:27.940Z,4.20
2022-08-17T09:29:27.752Z,5.10
2022-08-17T09:30:27.779Z,4.90
2022-08-17T09:31:32.696Z,5.10
2022-08-17T09:32:27.740Z,4.90
2022-08-17T09:33:27.725Z,5.00
2022-08-17T09:34:32.024Z,4.60
2022-08-17T09:35:33.788Z,4.60
2022-08-17T09:36:27.735Z,4.70
2022-08-17T09:37:27.805Z,4.40
2022-08-17T09:38:31.874Z,4.70
2022-08-17T09:39:27.841Z,4.70
2022-08-17T09:40:27.669Z,4.70
2022-08-17T09:41:27.686Z,4.50
2022-08-17T09:42:27.694Z,4.60
2022-08-17T09:43:27.647Z,4.60
2022-08-17T09:44:27.618Z,4.70
2022-08-17T09:45:27.649Z,4.70
2022-08-17T09:46:27.663Z,4.70
2022-08-17T09:47:27.749Z,4.70
2022-08-17T09:48:27.823Z,4.50
2022-08-17T09:49:27.638Z,4.70
2022-08-17T09:51:01.649Z,4.40
2022-08-17T09:51:27.892Z,4.40
2022-08-17T09:52:27.539Z,5.40
2022-08-17T09:53:31.651Z,4.20
2022-08-17T09:54:44.411Z,4.60
2022-08-17T09:55:27.549Z,4.60
2022-08-17T09:56:27.543Z,4.50
2022-08-17T09:57:30.709Z,4.40
2022-08-17T09:58:29.219Z,4.70
2022-08-17T09:59:27.479Z,4.50
2022-08-17T10:00:27.527Z,4.40
2022-08-17T10:01:27.507Z,5.00
2022-08-17T10:02:27.482Z,4.70
2022-08-17T10:03:27.519Z,4.60
2022-08-17T10:04:29.657Z,4.50
2022-08-17T10:05:27.470Z,4.60
2022-08-17T10:06:27.904Z,4.40
2022-08-17T10:07:27.423Z,4.60
2022-08-17T10:08:28.306Z,4.60
2022-08-17T10:09:27.416Z,4.60
2022-08-17T10:10:27.342Z,4.40
2022-08-17T10:11:33.727Z,4.20
2022-08-17T10:12:30.047Z,4.50
2022-08-17T10:13:27.417Z,4.60
2022-08-17T10:14:37.712Z,4.30
2022-08-17T10:15:27.431Z,4.10
2022-08-17T10:16:27.325Z,4.10
2022-08-17T10:17:27.407Z,4.30
2022-08-17T10:18:31.829Z,4.20
2022-08-17T10:19:27.385Z,4.30
2022-08-17T10:20:27.270Z,4.10
2022-08-17T10:21:27.242Z,4.40
2022-08-17T10:22:34.629Z,5.00
2022-08-17T10:23:27.277Z,4.90
2022-08-17T10:24:27.333Z,4.60
2022-08-17T10:25:42.535Z,4.50
2022-08-17T10:26:27.273Z,4.60
2022-08-17T10:27:27.223Z,4.60
2022-08-17T10:28:29.803Z,4.60
2022-08-17T10:29:28.820Z,4.80
2022-08-17T10:30:27.349Z,4.70
2022-08-17T10:31:35.782Z,4.50
2022-08-17T10:32:27.136Z,4.70
2022-08-17T10:33:27.198Z,4.90
2022-08-17T10:34:27.114Z,4.70
2022-08-17T10:35:27.258Z,4.80
2022-08-17T10:36:27.070Z,4.60
2022-08-17T10:37:27.128Z,4.90
2022-08-17T10:38:27.070Z,4.70
2022-08-17T10:39:27.141Z,4.70
2022-08-17T10:40:27.096Z,4.50
2022-08-17T10:41:27.047Z,4.70
2022-08-17T10:42:30.430Z,4.80
2022-08-17T10:43:26.997Z,4.60
2022-08-17T10:44:39.648Z,4.50
2022-08-17T10:45:26.981Z,4.80
2022-08-17T10:46:30.340Z,4.50
2022-08-17T10:47:26.949Z,4.70
2022-08-17T10:48:26.933Z,4.90
2022-08-17T10:49:26.925Z,4.60
2022-08-17T10:50:26.961Z,4.70
2022-08-17T10:51:26.926Z,4.50
2022-08-17T10:52:26.946Z,4.90
2022-08-17T10:53:26.902Z,4.80
2022-08-17T10:54:26.872Z,4.80
2022-08-17T10:55:26.887Z,4.80
2022-08-17T10:56:26.853Z,4.90
2022-08-17T10:57:26.846Z,4.60
2022-08-17T10:58:27.137Z,5.00
2022-08-17T10:59:26.845Z,4.70
2022-08-17T11:00:27.734Z,4.70
2022-08-17T11:01:26.884Z,4.70
2022-08-17T11:02:26.806Z,4.80
2022-08-17T11:03:26.804Z,4.70
2022-08-17T11:04:26.769Z,4.70
2022-08-17T11:05:26.784Z,4.80
2022-08-17T11:06:26.803Z,4.70
2022-08-17T11:07:26.785Z,4.90
2022-08-17T11:08:26.831Z,5.10
2022-08-17T11:09:26.736Z,5.00
2022-08-17T11:10:26.754Z,4.80
2022-08-17T11:11:26.708Z,4.90
2022-08-17T11:12:26.709Z,5.00
2022-08-17T11:13:26.753Z,5.00
2022-08-17T11:14:26.656Z,4.90
2022-08-17T11:15:26.669Z,4.90
2022-08-17T11:16:26.686Z,5.10
2022-08-17T11:17:26.656Z,4.90
2022-08-17T11:18:26.645Z,4.60
2022-08-17T11:19:26.637Z,5.30
2022-08-17T11:20:26.607Z,5.40
2022-08-17T11:21:26.593Z,5.10
2022-08-17T11:22:31.301Z,5.30
2022-08-17T11:23:26.630Z,5.30
2022-08-17T11:24:26.573Z,5.70
2022-08-17T11:25:26.552Z,5.80
2022-08-17T11:26:26.596Z,5.60
2022-08-17T11:27:26.562Z,5.90
2022-08-17T11:28:26.550Z,5.90
2022-08-17T11:29:26.516Z,6.20
2022-08-17T11:30:26.639Z,6.10
2022-08-17T11:31:37.952Z,6.50
2022-08-17T11:32:26.495Z,6.80
2022-08-17T11:33:26.516Z,6.40
2022-08-17T11:34:26.678Z,6.50
2022-08-17T11:35:26.797Z,6.10
2022-08-17T11:36:26.452Z,6.10
2022-08-17T11:37:26.440Z,6.80
2022-08-17T11:38:26.425Z,6.50
2022-08-17T11:39:26.525Z,6.60
2022-08-17T11:40:26.410Z,6.60
2022-08-17T11:41:26.402Z,6.50
2022-08-17T11:42:26.428Z,6.70
2022-08-17T11:43:26.410Z,6.40
2022-08-17T11:44:26.431Z,6.90
2022-08-17T11:45:31.928Z,6.60
2022-08-17T11:46:26.365Z,7.10
2022-08-17T11:47:26.379Z,7.30
2022-08-17T11:48:28.777Z,6.60
2022-08-17T11:49:26.336Z,6.50
2022-08-17T11:50:28.003Z,6.50
2022-08-17T11:51:26.284Z,6.60
2022-08-17T11:52:26.301Z,6.40
2022-08-17T11:53:26.280Z,6.60
2022-08-17T11:54:34.666Z,7.70
2022-08-17T11:55:35.400Z,8.10
2022-08-17T11:56:26.293Z,8.80
2022-08-17T11:57:26.301Z,9.00
2022-08-17T11:58:26.274Z,8.60
2022-08-17T11:59:26.282Z,8.50
2022-08-17T12:00:26.215Z,8.60
2022-08-17T12:01:26.201Z,8.00
2022-08-17T12:02:26.222Z,8.80
2022-08-17T12:03:26.249Z,8.60
2022-08-17T12:04:26.382Z,9.00
2022-08-17T12:05:26.192Z,9.60
2022-08-17T12:06:29.615Z,10.10
2022-08-17T12:07:26.268Z,9.40
2022-08-17T12:08:26.242Z,9.80
2022-08-17T12:09:26.202Z,9.70
2022-08-17T12:10:26.374Z,10.40
2022-08-17T12:11:56.346Z,10.40
2022-08-17T12:12:26.197Z,10.40
2022-08-17T12:13:34.613Z,9.70
2022-08-17T12:14:45.075Z,8.80
2022-08-17T12:15:26.120Z,9.30
2022-08-17T12:16:26.210Z,9.40
2022-08-17T12:17:40.658Z,9.10
2022-08-17T12:18:26.127Z,9.60
2022-08-17T12:19:26.220Z,10.10
2022-08-17T12:20:26.178Z,10.20
2022-08-17T12:21:26.076Z,10.80
2022-08-17T12:22:26.121Z,11.80
2022-08-17T12:23:26.347Z,11.80
2022-08-17T12:24:26.066Z,11.40
2022-08-17T12:25:26.029Z,11.00
2022-08-17T12:26:26.094Z,10.90
2022-08-17T12:28:04.349Z,11.20
2022-08-17T12:28:26.107Z,10.80
2022-08-17T12:29:35.702Z,10.90
2022-08-17T12:30:25.998Z,11.30
2022-08-17T12:31:25.995Z,11.10
2022-08-17T12:32:25.947Z,11.10
2022-08-17T12:33:28.184Z,10.00
2022-08-17T12:34:25.970Z,11.20
2022-08-17T12:35:25.851Z,11.00
2022-08-17T12:36:25.878Z,10.60
2022-08-17T12:37:25.832Z,11.00
2022-08-17T12:38:32.294Z,11.00
2022-08-17T12:39:25.970Z,10.70
2022-08-17T12:40:25.903Z,10.80
2022-08-17T12:41:25.959Z,10.20
2022-08-17T12:42:25.984Z,10.70
2022-08-17T12:43:25.893Z,10.30
2022-08-17T12:44:25.800Z,10.40
2022-08-17T12:45:25.978Z,11.00
2022-08-17T12:46:25.925Z,9.60
2022-08-17T12:47:26.140Z,10.80
2022-08-17T12:48:25.956Z,10.30
2022-08-17T12:49:26.128Z,11.30
2022-08-17T12:50:28.807Z,11.60
2022-08-17T12:51:25.812Z,11.60
2022-08-17T12:52:25.791Z,10.90
2022-08-17T12:53:25.828Z,11.60
2022-08-17T12:54:25.785Z,12.50
2022-08-17T12:55:26.239Z,11.10
2022-08-17T12:56:26.089Z,12.40
2022-08-17T12:57:25.708Z,12.00
2022-08-17T12:58:25.664Z,12.40
2022-08-17T12:59:30.189Z,11.90
2022-08-17T13:00:25.652Z,12.30
2022-08-17T13:01:25.685Z,12.10
2022-08-17T13:02:25.722Z,13.90
2022-08-17T13:03:25.711Z,13.00
2022-08-17T13:04:26.500Z,11.60